< Typhoon 197905 1979 Season Typhoon 197907 >
Typhoon 197906 (ELLIS)
General InformationTrack Information on Google MapsDetailed Wind InformationList of All Images || Disaster Info.ResourceGoogle EarthGE AnimationAtom FeedGeoJSON
Detalied Best Track (Time Zone = UTC)
Year Month Day Hour Lat. Long. Pressure (hPa) Wind (kt) Class Image Chart
1979 6 28 00 10.0 139.3 1008 0 2 Image Chart
1979 6 28 06 10.0 139.3 1008 0 2 Image Chart
1979 6 28 12 11.8 139.2 1006 0 2 Image Chart
1979 6 28 18 12.5 138.8 1006 0 2 Image Chart
1979 6 29 00 13.2 138.1 1004 0 2 Image Chart
1979 6 29 06 13.8 136.2 1004 0 2 Image Chart
1979 6 29 12 13.2 134.4 1004 0 2 Image Chart
1979 6 29 18 13.1 133.9 1004 0 2 Image Chart
1979 6 30 00 13.1 133.6 1002 0 2 Image Chart
1979 6 30 06 13.2 133.2 1002 0 2 Image Chart
1979 6 30 12 13.2 132.8 1002 0 2 Image Chart
1979 6 30 18 13.3 132.6 1000 0 2 Image Chart
1979 7 1 00 13.5 132.1 1000 0 2 Image Chart
1979 7 1 06 13.6 131.4 994 40 3 Image Chart
1979 7 1 12 13.8 130.6 990 40 3 Image Chart
1979 7 1 18 13.9 129.7 986 45 3 Image Chart
1979 7 2 00 14.1 128.7 980 55 4 Image Chart
1979 7 2 06 14.5 127.7 975 55 4 Image Chart
1979 7 2 12 14.9 126.8 970 55 4 Image Chart
1979 7 2 18 15.2 125.8 960 65 5 Image Chart
1979 7 3 00 16.1 124.9 955 75 5 Image Chart
1979 7 3 06 16.8 124.3 955 75 5 Image Chart
1979 7 3 12 17.6 123.4 960 75 5 Image Chart
1979 7 3 18 18.1 122.5 965 70 5 Image Chart
1979 7 4 00 18.8 121.4 975 60 4 Image Chart
1979 7 4 06 19.3 120.3 985 60 4 Image Chart
1979 7 4 12 19.8 119.0 985 60 4 Image Chart
1979 7 4 18 20.1 117.7 985 60 4 Image Chart
1979 7 5 00 20.3 116.3 980 60 4 Image Chart
1979 7 5 06 20.5 115.3 980 60 4 Image Chart
1979 7 5 12 20.8 114.0 980 60 4 Image Chart
1979 7 5 18 21.2 112.9 985 50 4 Image Chart
1979 7 6 00 21.5 111.8 992 40 3 Image Chart
1979 7 6 06 21.8 110.8 998 0 2 Image Chart
1979 7 6 12 22.2 109.5 1000 0 2 Image Chart
1979 7 6 18 22.5 108.4 1000 0 2 Image Chart
1979 7 7 00 22.9 107.0 1002 0 2 Image Chart
Japan Meteorological Agency Best Track Data | Correction Date : 1992-10-21
< Typhoon 197905 1979 Season Typhoon 197907 >

Help